sensor_id;sensor_type;location;lat;lon;timestamp;P1;durP1;ratioP1;P2;durP2;ratioP2
57746;SDS011;43580;44.014;20.466;2023-02-28T00:00:20;68.97;;;35.70;;
57746;SDS011;43580;44.014;20.466;2023-02-28T00:02:46;60.95;;;31.98;;
57746;SDS011;43580;44.014;20.466;2023-02-28T00:05:13;64.55;;;33.22;;
57746;SDS011;43580;44.014;20.466;2023-02-28T00:07:40;57.40;;;32.25;;
57746;SDS011;43580;44.014;20.466;2023-02-28T00:10:09;56.97;;;28.02;;
57746;SDS011;43580;44.014;20.466;2023-02-28T00:12:36;56.67;;;30.25;;
57746;SDS011;43580;44.014;20.466;2023-02-28T00:15:05;58.33;;;30.08;;
57746;SDS011;43580;44.014;20.466;2023-02-28T00:17:31;62.30;;;32.25;;
57746;SDS011;43580;44.014;20.466;2023-02-28T00:19:57;55.92;;;31.15;;
57746;SDS011;43580;44.014;20.466;2023-02-28T00:22:37;57.15;;;30.63;;
57746;SDS011;43580;44.014;20.466;2023-02-28T00:25:03;59.63;;;31.65;;
57746;SDS011;43580;44.014;20.466;2023-02-28T00:27:33;57.55;;;31.15;;
57746;SDS011;43580;44.014;20.466;2023-02-28T00:29:59;66.00;;;33.10;;
57746;SDS011;43580;44.014;20.466;2023-02-28T00:32:26;65.10;;;32.60;;
57746;SDS011;43580;44.014;20.466;2023-02-28T00:34:52;66.72;;;34.80;;
57746;SDS011;43580;44.014;20.466;2023-02-28T00:37:18;67.20;;;35.55;;
57746;SDS011;43580;44.014;20.466;2023-02-28T00:39:44;75.82;;;36.90;;
57746;SDS011;43580;44.014;20.466;2023-02-28T00:42:10;74.13;;;39.45;;
57746;SDS011;43580;44.014;20.466;2023-02-28T00:44:36;62.75;;;34.70;;
57746;SDS011;43580;44.014;20.466;2023-02-28T00:47:02;67.03;;;34.97;;
57746;SDS011;43580;44.014;20.466;2023-02-28T00:49:28;106.68;;;67.78;;
57746;SDS011;43580;44.014;20.466;2023-02-28T00:51:54;62.20;;;34.05;;
57746;SDS011;43580;44.014;20.466;2023-02-28T00:54:21;58.13;;;30.83;;
57746;SDS011;43580;44.014;20.466;2023-02-28T00:56:47;60.22;;;33.55;;
57746;SDS011;43580;44.014;20.466;2023-02-28T00:59:16;58.47;;;30.30;;
57746;SDS011;43580;44.014;20.466;2023-02-28T01:01:43;58.75;;;29.15;;
57746;SDS011;43580;44.014;20.466;2023-02-28T01:04:09;59.13;;;30.48;;
57746;SDS011;43580;44.014;20.466;2023-02-28T01:06:35;54.50;;;29.27;;
57746;SDS011;43580;44.014;20.466;2023-02-28T01:09:03;61.70;;;32.50;;
57746;SDS011;43580;44.014;20.466;2023-02-28T01:11:31;63.80;;;33.30;;
57746;SDS011;43580;44.014;20.466;2023-02-28T01:13:58;64.00;;;34.22;;
57746;SDS011;43580;44.014;20.466;2023-02-28T01:16:27;65.28;;;34.47;;
57746;SDS011;43580;44.014;20.466;2023-02-28T01:18:53;67.65;;;34.08;;
57746;SDS011;43580;44.014;20.466;2023-02-28T01:21:22;62.80;;;32.63;;
57746;SDS011;43580;44.014;20.466;2023-02-28T01:23:48;65.15;;;33.67;;
57746;SDS011;43580;44.014;20.466;2023-02-28T01:26:19;67.53;;;34.97;;
57746;SDS011;43580;44.014;20.466;2023-02-28T01:28:46;70.63;;;35.38;;
57746;SDS011;43580;44.014;20.466;2023-02-28T01:31:12;71.53;;;37.55;;
57746;SDS011;43580;44.014;20.466;2023-02-28T01:33:39;70.20;;;35.50;;
57746;SDS011;43580;44.014;20.466;2023-02-28T01:36:15;65.05;;;34.35;;
57746;SDS011;43580;44.014;20.466;2023-02-28T01:38:42;63.78;;;32.55;;
57746;SDS011;43580;44.014;20.466;2023-02-28T01:41:08;65.65;;;33.47;;
57746;SDS011;43580;44.014;20.466;2023-02-28T01:46:10;71.10;;;34.88;;
57746;SDS011;43580;44.014;20.466;2023-02-28T01:48:38;63.15;;;33.83;;
57746;SDS011;43580;44.014;20.466;2023-02-28T01:51:10;68.45;;;36.25;;
57746;SDS011;43580;44.014;20.466;2023-02-28T01:53:39;69.45;;;33.25;;
57746;SDS011;43580;44.014;20.466;2023-02-28T01:56:07;67.75;;;36.03;;
57746;SDS011;43580;44.014;20.466;2023-02-28T01:58:35;66.57;;;34.25;;
57746;SDS011;43580;44.014;20.466;2023-02-28T02:01:02;73.63;;;35.72;;
57746;SDS011;43580;44.014;20.466;2023-02-28T02:03:28;70.03;;;35.28;;
57746;SDS011;43580;44.014;20.466;2023-02-28T02:05:55;69.03;;;37.15;;
57746;SDS011;43580;44.014;20.466;2023-02-28T02:08:21;76.10;;;36.63;;
57746;SDS011;43580;44.014;20.466;2023-02-28T02:10:49;69.93;;;34.78;;
57746;SDS011;43580;44.014;20.466;2023-02-28T02:21:07;76.10;;;35.08;;
57746;SDS011;43580;44.014;20.466;2023-02-28T02:29:55;74.93;;;36.92;;
57746;SDS011;43580;44.014;20.466;2023-02-28T02:32:09;76.22;;;35.65;;
57746;SDS011;43580;44.014;20.466;2023-02-28T02:34:45;74.55;;;36.58;;
57746;SDS011;43580;44.014;20.466;2023-02-28T02:40:14;85.80;;;38.92;;
57746;SDS011;43580;44.014;20.466;2023-02-28T02:42:45;87.15;;;39.38;;
57746;SDS011;43580;44.014;20.466;2023-02-28T02:45:15;102.88;;;45.10;;
57746;SDS011;43580;44.014;20.466;2023-02-28T02:47:43;115.93;;;49.03;;
57746;SDS011;43580;44.014;20.466;2023-02-28T02:50:12;99.70;;;42.42;;
57746;SDS011;43580;44.014;20.466;2023-02-28T02:52:44;108.65;;;50.70;;
57746;SDS011;43580;44.014;20.466;2023-02-28T02:55:11;96.85;;;42.20;;
57746;SDS011;43580;44.014;20.466;2023-02-28T02:57:44;111.50;;;49.00;;
57746;SDS011;43580;44.014;20.466;2023-02-28T03:00:11;101.13;;;45.47;;
57746;SDS011;43580;44.014;20.466;2023-02-28T03:02:37;102.38;;;42.90;;
57746;SDS011;43580;44.014;20.466;2023-02-28T03:05:05;104.03;;;45.78;;
57746;SDS011;43580;44.014;20.466;2023-02-28T03:07:33;104.63;;;46.47;;
57746;SDS011;43580;44.014;20.466;2023-02-28T03:09:59;109.40;;;49.22;;
57746;SDS011;43580;44.014;20.466;2023-02-28T03:12:40;143.38;;;60.63;;
57746;SDS011;43580;44.014;20.466;2023-02-28T03:20:38;218.00;;;84.90;;
57746;SDS011;43580;44.014;20.466;2023-02-28T03:28:22;109.85;;;47.25;;
57746;SDS011;43580;44.014;20.466;2023-02-28T03:30:57;112.30;;;50.20;;
57746;SDS011;43580;44.014;20.466;2023-02-28T03:33:35;99.28;;;45.20;;
57746;SDS011;43580;44.014;20.466;2023-02-28T03:36:05;99.78;;;46.55;;
57746;SDS011;43580;44.014;20.466;2023-02-28T03:41:01;104.40;;;41.83;;
57746;SDS011;43580;44.014;20.466;2023-02-28T03:43:32;108.80;;;42.55;;
57746;SDS011;43580;44.014;20.466;2023-02-28T03:46:04;119.30;;;45.67;;
57746;SDS011;43580;44.014;20.466;2023-02-28T03:48:34;120.70;;;44.25;;
57746;SDS011;43580;44.014;20.466;2023-02-28T03:51:02;115.50;;;44.38;;
57746;SDS011;43580;44.014;20.466;2023-02-28T03:53:30;121.60;;;46.40;;
57746;SDS011;43580;44.014;20.466;2023-02-28T03:56:11;124.70;;;43.53;;
57746;SDS011;43580;44.014;20.466;2023-02-28T03:58:41;103.75;;;39.13;;
57746;SDS011;43580;44.014;20.466;2023-02-28T04:01:12;118.18;;;42.35;;
57746;SDS011;43580;44.014;20.466;2023-02-28T04:03:38;120.82;;;47.15;;
57746;SDS011;43580;44.014;20.466;2023-02-28T04:06:12;116.75;;;46.15;;
57746;SDS011;43580;44.014;20.466;2023-02-28T04:08:39;122.57;;;46.30;;
57746;SDS011;43580;44.014;20.466;2023-02-28T04:11:13;107.53;;;40.20;;
57746;SDS011;43580;44.014;20.466;2023-02-28T04:13:42;115.35;;;43.13;;
57746;SDS011;43580;44.014;20.466;2023-02-28T04:16:08;112.38;;;43.03;;
57746;SDS011;43580;44.014;20.466;2023-02-28T04:18:37;104.68;;;43.85;;
57746;SDS011;43580;44.014;20.466;2023-02-28T04:21:03;99.95;;;39.90;;
57746;SDS011;43580;44.014;20.466;2023-02-28T04:23:30;111.20;;;43.95;;
57746;SDS011;43580;44.014;20.466;2023-02-28T04:25:58;109.07;;;41.67;;
57746;SDS011;43580;44.014;20.466;2023-02-28T04:28:24;114.47;;;43.15;;
57746;SDS011;43580;44.014;20.466;2023-02-28T04:31:08;100.85;;;39.92;;
57746;SDS011;43580;44.014;20.466;2023-02-28T04:33:35;124.10;;;50.78;;
57746;SDS011;43580;44.014;20.466;2023-02-28T04:36:05;118.72;;;52.00;;
57746;SDS011;43580;44.014;20.466;2023-02-28T04:38:33;114.63;;;41.60;;
57746;SDS011;43580;44.014;20.466;2023-02-28T04:40:59;117.55;;;44.90;;
57746;SDS011;43580;44.014;20.466;2023-02-28T04:43:26;121.25;;;45.92;;
57746;SDS011;43580;44.014;20.466;2023-02-28T04:45:53;121.60;;;43.03;;
57746;SDS011;43580;44.014;20.466;2023-02-28T04:48:24;150.15;;;57.95;;
57746;SDS011;43580;44.014;20.466;2023-02-28T04:50:51;129.13;;;51.63;;
57746;SDS011;43580;44.014;20.466;2023-02-28T04:53:17;131.68;;;45.95;;
57746;SDS011;43580;44.014;20.466;2023-02-28T04:55:46;114.07;;;42.83;;
57746;SDS011;43580;44.014;20.466;2023-02-28T04:58:12;136.20;;;54.67;;
57746;SDS011;43580;44.014;20.466;2023-02-28T05:00:38;114.05;;;43.05;;
57746;SDS011;43580;44.014;20.466;2023-02-28T05:03:05;114.15;;;42.13;;
57746;SDS011;43580;44.014;20.466;2023-02-28T05:05:31;138.68;;;52.72;;
57746;SDS011;43580;44.014;20.466;2023-02-28T05:07:57;169.35;;;67.43;;
57746;SDS011;43580;44.014;20.466;2023-02-28T05:10:23;125.30;;;47.80;;
57746;SDS011;43580;44.014;20.466;2023-02-28T05:12:49;128.30;;;48.53;;
57746;SDS011;43580;44.014;20.466;2023-02-28T05:15:16;117.95;;;40.25;;
57746;SDS011;43580;44.014;20.466;2023-02-28T05:17:42;132.55;;;46.13;;
57746;SDS011;43580;44.014;20.466;2023-02-28T05:20:09;132.45;;;50.20;;
57746;SDS011;43580;44.014;20.466;2023-02-28T05:22:36;134.32;;;53.17;;
57746;SDS011;43580;44.014;20.466;2023-02-28T05:25:02;114.18;;;42.28;;
57746;SDS011;43580;44.014;20.466;2023-02-28T05:27:29;124.32;;;44.50;;
57746;SDS011;43580;44.014;20.466;2023-02-28T05:29:55;122.95;;;46.42;;
57746;SDS011;43580;44.014;20.466;2023-02-28T05:32:22;127.85;;;48.47;;
57746;SDS011;43580;44.014;20.466;2023-02-28T05:34:48;117.65;;;43.03;;
57746;SDS011;43580;44.014;20.466;2023-02-28T05:37:16;121.65;;;46.25;;
57746;SDS011;43580;44.014;20.466;2023-02-28T05:39:42;125.28;;;49.97;;
57746;SDS011;43580;44.014;20.466;2023-02-28T05:42:09;139.45;;;53.15;;
57746;SDS011;43580;44.014;20.466;2023-02-28T05:44:35;214.07;;;86.25;;
57746;SDS011;43580;44.014;20.466;2023-02-28T05:47:01;150.07;;;60.60;;
57746;SDS011;43580;44.014;20.466;2023-02-28T05:49:27;131.00;;;51.28;;
57746;SDS011;43580;44.014;20.466;2023-02-28T05:51:56;258.52;;;103.00;;
57746;SDS011;43580;44.014;20.466;2023-02-28T05:54:22;230.00;;;92.93;;
57746;SDS011;43580;44.014;20.466;2023-02-28T05:56:50;167.95;;;63.72;;
57746;SDS011;43580;44.014;20.466;2023-02-28T05:59:16;104.38;;;40.42;;
57746;SDS011;43580;44.014;20.466;2023-02-28T06:01:43;102.78;;;38.60;;
57746;SDS011;43580;44.014;20.466;2023-02-28T06:04:13;107.10;;;42.47;;
57746;SDS011;43580;44.014;20.466;2023-02-28T06:06:44;112.82;;;49.30;;
57746;SDS011;43580;44.014;20.466;2023-02-28T06:09:10;88.97;;;37.03;;
57746;SDS011;43580;44.014;20.466;2023-02-28T06:11:36;99.60;;;42.17;;
57746;SDS011;43580;44.014;20.466;2023-02-28T06:14:03;88.38;;;38.80;;
57746;SDS011;43580;44.014;20.466;2023-02-28T06:16:30;82.65;;;39.35;;
57746;SDS011;43580;44.014;20.466;2023-02-28T06:19:00;112.05;;;54.08;;
57746;SDS011;43580;44.014;20.466;2023-02-28T06:21:26;70.70;;;35.30;;
57746;SDS011;43580;44.014;20.466;2023-02-28T06:23:56;68.63;;;33.72;;
57746;SDS011;43580;44.014;20.466;2023-02-28T06:26:22;73.82;;;37.67;;
57746;SDS011;43580;44.014;20.466;2023-02-28T06:28:48;73.65;;;33.72;;
57746;SDS011;43580;44.014;20.466;2023-02-28T06:31:15;89.90;;;46.80;;
57746;SDS011;43580;44.014;20.466;2023-02-28T06:33:44;84.47;;;39.38;;
57746;SDS011;43580;44.014;20.466;2023-02-28T06:36:11;88.03;;;40.00;;
57746;SDS011;43580;44.014;20.466;2023-02-28T06:38:38;82.15;;;38.83;;
57746;SDS011;43580;44.014;20.466;2023-02-28T06:41:05;89.47;;;39.10;;
57746;SDS011;43580;44.014;20.466;2023-02-28T06:43:32;98.03;;;46.17;;
57746;SDS011;43580;44.014;20.466;2023-02-28T06:46:00;84.13;;;37.85;;
57746;SDS011;43580;44.014;20.466;2023-02-28T06:48:27;85.68;;;38.47;;
57746;SDS011;43580;44.014;20.466;2023-02-28T06:51:01;97.75;;;45.83;;
57746;SDS011;43580;44.014;20.466;2023-02-28T06:53:27;97.68;;;46.65;;
57746;SDS011;43580;44.014;20.466;2023-02-28T06:55:53;168.88;;;79.75;;
57746;SDS011;43580;44.014;20.466;2023-02-28T06:58:19;120.97;;;57.15;;
57746;SDS011;43580;44.014;20.466;2023-02-28T07:00:45;134.82;;;65.00;;
57746;SDS011;43580;44.014;20.466;2023-02-28T07:03:12;134.07;;;67.85;;
57746;SDS011;43580;44.014;20.466;2023-02-28T07:05:40;164.48;;;88.15;;
57746;SDS011;43580;44.014;20.466;2023-02-28T07:08:08;96.15;;;43.80;;
57746;SDS011;43580;44.014;20.466;2023-02-28T07:10:37;97.15;;;44.90;;
57746;SDS011;43580;44.014;20.466;2023-02-28T07:13:03;89.68;;;45.03;;
57746;SDS011;43580;44.014;20.466;2023-02-28T07:15:29;96.32;;;43.88;;
57746;SDS011;43580;44.014;20.466;2023-02-28T07:17:55;114.18;;;51.05;;
57746;SDS011;43580;44.014;20.466;2023-02-28T07:20:22;95.53;;;43.95;;
57746;SDS011;43580;44.014;20.466;2023-02-28T07:22:48;105.63;;;50.17;;
57746;SDS011;43580;44.014;20.466;2023-02-28T07:25:20;102.80;;;49.05;;
57746;SDS011;43580;44.014;20.466;2023-02-28T07:27:46;104.45;;;48.40;;
57746;SDS011;43580;44.014;20.466;2023-02-28T07:30:12;98.07;;;44.95;;
57746;SDS011;43580;44.014;20.466;2023-02-28T07:32:39;95.82;;;44.38;;
57746;SDS011;43580;44.014;20.466;2023-02-28T07:35:05;114.25;;;50.97;;
57746;SDS011;43580;44.014;20.466;2023-02-28T07:37:31;84.85;;;37.97;;
57746;SDS011;43580;44.014;20.466;2023-02-28T07:40:01;89.60;;;39.47;;
57746;SDS011;43580;44.014;20.466;2023-02-28T07:42:29;74.75;;;33.25;;
57746;SDS011;43580;44.014;20.466;2023-02-28T07:44:55;72.32;;;30.85;;
57746;SDS011;43580;44.014;20.466;2023-02-28T07:47:21;75.43;;;32.83;;
57746;SDS011;43580;44.014;20.466;2023-02-28T07:49:49;72.55;;;34.10;;
57746;SDS011;43580;44.014;20.466;2023-02-28T07:52:16;90.80;;;45.25;;
57746;SDS011;43580;44.014;20.466;2023-02-28T07:54:42;89.03;;;38.65;;
57746;SDS011;43580;44.014;20.466;2023-02-28T07:57:10;102.90;;;44.58;;
57746;SDS011;43580;44.014;20.466;2023-02-28T07:59:36;86.68;;;39.30;;
57746;SDS011;43580;44.014;20.466;2023-02-28T08:02:02;88.70;;;36.95;;
57746;SDS011;43580;44.014;20.466;2023-02-28T08:04:31;79.78;;;39.08;;
57746;SDS011;43580;44.014;20.466;2023-02-28T08:07:02;89.68;;;39.55;;
57746;SDS011;43580;44.014;20.466;2023-02-28T08:09:28;104.63;;;47.30;;
57746;SDS011;43580;44.014;20.466;2023-02-28T08:11:55;77.70;;;34.30;;
57746;SDS011;43580;44.014;20.466;2023-02-28T08:14:23;90.13;;;40.42;;
57746;SDS011;43580;44.014;20.466;2023-02-28T08:16:52;104.00;;;51.65;;
57746;SDS011;43580;44.014;20.466;2023-02-28T08:19:19;77.28;;;35.65;;
57746;SDS011;43580;44.014;20.466;2023-02-28T08:21:45;82.90;;;39.72;;
57746;SDS011;43580;44.014;20.466;2023-02-28T08:24:11;73.55;;;35.90;;
57746;SDS011;43580;44.014;20.466;2023-02-28T08:26:37;69.28;;;30.20;;
57746;SDS011;43580;44.014;20.466;2023-02-28T08:29:03;74.88;;;34.83;;
57746;SDS011;43580;44.014;20.466;2023-02-28T08:31:32;67.65;;;32.53;;
57746;SDS011;43580;44.014;20.466;2023-02-28T08:33:58;69.70;;;32.03;;
57746;SDS011;43580;44.014;20.466;2023-02-28T08:36:24;110.60;;;54.00;;
57746;SDS011;43580;44.014;20.466;2023-02-28T08:38:51;94.45;;;40.17;;
57746;SDS011;43580;44.014;20.466;2023-02-28T08:41:17;69.88;;;37.92;;
57746;SDS011;43580;44.014;20.466;2023-02-28T08:43:46;64.90;;;32.65;;
57746;SDS011;43580;44.014;20.466;2023-02-28T08:46:12;82.45;;;39.33;;
57746;SDS011;43580;44.014;20.466;2023-02-28T08:48:39;85.88;;;41.00;;
57746;SDS011;43580;44.014;20.466;2023-02-28T08:51:06;73.20;;;35.42;;
57746;SDS011;43580;44.014;20.466;2023-02-28T08:53:34;65.15;;;31.33;;
57746;SDS011;43580;44.014;20.466;2023-02-28T08:56:05;78.93;;;40.70;;
57746;SDS011;43580;44.014;20.466;2023-02-28T08:58:31;67.40;;;33.50;;
57746;SDS011;43580;44.014;20.466;2023-02-28T09:00:57;67.05;;;36.35;;
57746;SDS011;43580;44.014;20.466;2023-02-28T09:03:28;76.15;;;39.83;;
57746;SDS011;43580;44.014;20.466;2023-02-28T09:05:55;59.00;;;29.73;;
57746;SDS011;43580;44.014;20.466;2023-02-28T09:08:21;61.90;;;30.08;;
57746;SDS011;43580;44.014;20.466;2023-02-28T09:10:48;63.60;;;29.63;;
57746;SDS011;43580;44.014;20.466;2023-02-28T09:13:14;70.88;;;36.30;;
57746;SDS011;43580;44.014;20.466;2023-02-28T09:15:40;70.07;;;36.10;;
57746;SDS011;43580;44.014;20.466;2023-02-28T09:18:06;72.13;;;35.28;;
57746;SDS011;43580;44.014;20.466;2023-02-28T09:20:32;72.28;;;33.78;;
57746;SDS011;43580;44.014;20.466;2023-02-28T09:22:58;67.95;;;31.52;;
57746;SDS011;43580;44.014;20.466;2023-02-28T09:25:24;59.58;;;28.33;;
57746;SDS011;43580;44.014;20.466;2023-02-28T09:27:50;56.33;;;28.85;;
57746;SDS011;43580;44.014;20.466;2023-02-28T09:30:16;64.03;;;30.73;;
57746;SDS011;43580;44.014;20.466;2023-02-28T09:32:43;66.25;;;32.55;;
57746;SDS011;43580;44.014;20.466;2023-02-28T09:35:16;82.13;;;43.13;;
57746;SDS011;43580;44.014;20.466;2023-02-28T09:37:42;80.97;;;36.45;;
57746;SDS011;43580;44.014;20.466;2023-02-28T09:40:09;66.38;;;32.47;;
57746;SDS011;43580;44.014;20.466;2023-02-28T09:42:35;71.65;;;31.58;;
57746;SDS011;43580;44.014;20.466;2023-02-28T09:45:02;66.93;;;31.10;;
57746;SDS011;43580;44.014;20.466;2023-02-28T09:47:36;124.93;;;59.53;;
57746;SDS011;43580;44.014;20.466;2023-02-28T09:50:17;86.90;;;41.42;;
57746;SDS011;43580;44.014;20.466;2023-02-28T09:52:44;57.45;;;26.90;;
57746;SDS011;43580;44.014;20.466;2023-02-28T09:57:40;69.57;;;34.40;;
57746;SDS011;43580;44.014;20.466;2023-02-28T10:00:10;65.15;;;28.13;;
57746;SDS011;43580;44.014;20.466;2023-02-28T10:05:12;69.35;;;33.10;;
57746;SDS011;43580;44.014;20.466;2023-02-28T10:15:39;58.03;;;27.92;;
57746;SDS011;43580;44.014;20.466;2023-02-28T10:18:08;70.28;;;36.00;;
57746;SDS011;43580;44.014;20.466;2023-02-28T10:20:37;67.97;;;33.60;;
57746;SDS011;43580;44.014;20.466;2023-02-28T10:25:36;62.97;;;30.10;;
57746;SDS011;43580;44.014;20.466;2023-02-28T10:28:09;74.47;;;38.97;;
57746;SDS011;43580;44.014;20.466;2023-02-28T10:30:54;65.55;;;30.58;;
57746;SDS011;43580;44.014;20.466;2023-02-28T10:35:50;59.17;;;24.90;;
57746;SDS011;43580;44.014;20.466;2023-02-28T10:38:18;64.05;;;29.92;;
57746;SDS011;43580;44.014;20.466;2023-02-28T10:40:44;67.07;;;29.17;;
57746;SDS011;43580;44.014;20.466;2023-02-28T10:45:51;67.95;;;33.03;;
57746;SDS011;43580;44.014;20.466;2023-02-28T10:50:50;70.93;;;31.67;;
57746;SDS011;43580;44.014;20.466;2023-02-28T11:01:37;76.68;;;33.75;;
57746;SDS011;43580;44.014;20.466;2023-02-28T11:04:02;107.38;;;51.50;;
57746;SDS011;43580;44.014;20.466;2023-02-28T11:06:29;92.03;;;42.85;;
57746;SDS011;43580;44.014;20.466;2023-02-28T11:08:56;113.57;;;54.45;;
57746;SDS011;43580;44.014;20.466;2023-02-28T11:11:25;102.13;;;50.80;;
57746;SDS011;43580;44.014;20.466;2023-02-28T11:13:53;88.93;;;39.33;;
57746;SDS011;43580;44.014;20.466;2023-02-28T11:16:20;100.03;;;42.45;;
57746;SDS011;43580;44.014;20.466;2023-02-28T11:18:48;132.23;;;64.82;;
57746;SDS011;43580;44.014;20.466;2023-02-28T11:21:24;93.15;;;39.65;;
57746;SDS011;43580;44.014;20.466;2023-02-28T11:23:54;129.80;;;58.65;;
57746;SDS011;43580;44.014;20.466;2023-02-28T11:26:40;109.55;;;52.53;;
57746;SDS011;43580;44.014;20.466;2023-02-28T11:34:27;85.57;;;38.97;;
57746;SDS011;43580;44.014;20.466;2023-02-28T11:36:54;68.35;;;32.75;;
57746;SDS011;43580;44.014;20.466;2023-02-28T11:39:21;80.97;;;38.13;;
57746;SDS011;43580;44.014;20.466;2023-02-28T11:44:28;97.10;;;45.22;;
57746;SDS011;43580;44.014;20.466;2023-02-28T11:47:00;101.70;;;45.55;;
57746;SDS011;43580;44.014;20.466;2023-02-28T11:49:43;85.18;;;37.38;;
57746;SDS011;43580;44.014;20.466;2023-02-28T12:02:55;70.40;;;31.95;;
57746;SDS011;43580;44.014;20.466;2023-02-28T12:10:44;79.50;;;36.85;;
57746;SDS011;43580;44.014;20.466;2023-02-28T12:13:16;87.15;;;41.33;;
57746;SDS011;43580;44.014;20.466;2023-02-28T12:26:36;69.80;;;31.87;;
57746;SDS011;43580;44.014;20.466;2023-02-28T12:31:53;75.30;;;35.28;;
57746;SDS011;43580;44.014;20.466;2023-02-28T12:34:40;79.68;;;35.35;;
57746;SDS011;43580;44.014;20.466;2023-02-28T12:37:12;73.60;;;35.72;;
57746;SDS011;43580;44.014;20.466;2023-02-28T12:39:41;76.43;;;39.92;;
57746;SDS011;43580;44.014;20.466;2023-02-28T12:42:11;92.40;;;41.70;;
57746;SDS011;43580;44.014;20.466;2023-02-28T12:44:42;79.93;;;38.55;;
57746;SDS011;43580;44.014;20.466;2023-02-28T12:47:11;79.03;;;38.50;;
57746;SDS011;43580;44.014;20.466;2023-02-28T12:49:39;67.05;;;34.45;;
57746;SDS011;43580;44.014;20.466;2023-02-28T12:52:07;69.20;;;33.15;;
57746;SDS011;43580;44.014;20.466;2023-02-28T12:57:16;95.95;;;40.85;;
57746;SDS011;43580;44.014;20.466;2023-02-28T13:00:00;82.13;;;38.03;;
57746;SDS011;43580;44.014;20.466;2023-02-28T13:08:17;63.37;;;30.07;;
57746;SDS011;43580;44.014;20.466;2023-02-28T13:10:47;109.63;;;56.33;;
57746;SDS011;43580;44.014;20.466;2023-02-28T13:13:20;76.53;;;39.58;;
57746;SDS011;43580;44.014;20.466;2023-02-28T13:16:01;79.03;;;39.17;;
57746;SDS011;43580;44.014;20.466;2023-02-28T13:18:29;78.28;;;33.70;;
57746;SDS011;43580;44.014;20.466;2023-02-28T13:20:58;78.88;;;38.20;;
57746;SDS011;43580;44.014;20.466;2023-02-28T13:24:10;78.68;;;35.75;;
57746;SDS011;43580;44.014;20.466;2023-02-28T13:26:17;101.72;;;42.38;;
57746;SDS011;43580;44.014;20.466;2023-02-28T13:31:22;82.82;;;37.30;;
57746;SDS011;43580;44.014;20.466;2023-02-28T13:38:44;67.22;;;32.38;;
57746;SDS011;43580;44.014;20.466;2023-02-28T13:44:09;82.25;;;39.38;;
57746;SDS011;43580;44.014;20.466;2023-02-28T13:47:22;76.07;;;35.75;;
57746;SDS011;43580;44.014;20.466;2023-02-28T13:51:54;93.70;;;45.67;;
57746;SDS011;43580;44.014;20.466;2023-02-28T13:59:46;95.28;;;47.72;;
57746;SDS011;43580;44.014;20.466;2023-02-28T14:04:46;69.78;;;38.88;;
57746;SDS011;43580;44.014;20.466;2023-02-28T14:07:21;82.07;;;47.78;;
57746;SDS011;43580;44.014;20.466;2023-02-28T14:09:56;63.58;;;33.55;;
57746;SDS011;43580;44.014;20.466;2023-02-28T14:17:52;70.93;;;35.13;;
57746;SDS011;43580;44.014;20.466;2023-02-28T14:20:19;85.68;;;41.38;;
57746;SDS011;43580;44.014;20.466;2023-02-28T14:23:06;83.70;;;41.00;;
57746;SDS011;43580;44.014;20.466;2023-02-28T14:30:50;94.80;;;53.65;;
57746;SDS011;43580;44.014;20.466;2023-02-28T14:38:32;75.18;;;42.28;;
57746;SDS011;43580;44.014;20.466;2023-02-28T14:41:02;119.85;;;69.30;;
57746;SDS011;43580;44.014;20.466;2023-02-28T14:43:31;98.75;;;50.15;;
57746;SDS011;43580;44.014;20.466;2023-02-28T14:45:58;151.63;;;92.85;;
57746;SDS011;43580;44.014;20.466;2023-02-28T14:48:25;127.88;;;65.82;;
57746;SDS011;43580;44.014;20.466;2023-02-28T14:50:53;85.20;;;45.55;;
57746;SDS011;43580;44.014;20.466;2023-02-28T14:53:20;76.18;;;38.17;;
57746;SDS011;43580;44.014;20.466;2023-02-28T14:55:47;90.50;;;48.72;;
57746;SDS011;43580;44.014;20.466;2023-02-28T14:58:25;81.05;;;41.85;;
57746;SDS011;43580;44.014;20.466;2023-02-28T15:00:52;118.47;;;62.20;;
57746;SDS011;43580;44.014;20.466;2023-02-28T15:03:23;60.25;;;31.17;;
57746;SDS011;43580;44.014;20.466;2023-02-28T15:06:00;79.43;;;35.80;;
57746;SDS011;43580;44.014;20.466;2023-02-28T15:08:27;53.45;;;26.75;;
57746;SDS011;43580;44.014;20.466;2023-02-28T15:13:20;81.32;;;40.88;;
57746;SDS011;43580;44.014;20.466;2023-02-28T15:15:54;83.63;;;38.30;;
57746;SDS011;43580;44.014;20.466;2023-02-28T15:21:12;64.45;;;31.55;;
57746;SDS011;43580;44.014;20.466;2023-02-28T15:23:39;61.38;;;31.75;;
57746;SDS011;43580;44.014;20.466;2023-02-28T15:26:06;67.75;;;33.40;;
57746;SDS011;43580;44.014;20.466;2023-02-28T15:28:32;81.97;;;39.90;;
57746;SDS011;43580;44.014;20.466;2023-02-28T15:30:59;93.20;;;47.30;;
57746;SDS011;43580;44.014;20.466;2023-02-28T15:33:27;123.70;;;72.43;;
57746;SDS011;43580;44.014;20.466;2023-02-28T15:36:03;65.03;;;33.70;;
57746;SDS011;43580;44.014;20.466;2023-02-28T15:38:32;81.90;;;39.20;;
57746;SDS011;43580;44.014;20.466;2023-02-28T15:40:59;88.72;;;41.88;;
57746;SDS011;43580;44.014;20.466;2023-02-28T15:43:27;82.20;;;38.53;;
57746;SDS011;43580;44.014;20.466;2023-02-28T15:45:59;91.90;;;47.85;;
57746;SDS011;43580;44.014;20.466;2023-02-28T15:48:36;91.57;;;45.10;;
57746;SDS011;43580;44.014;20.466;2023-02-28T15:51:08;117.40;;;66.80;;
57746;SDS011;43580;44.014;20.466;2023-02-28T15:53:36;110.28;;;50.85;;
57746;SDS011;43580;44.014;20.466;2023-02-28T15:56:04;85.45;;;43.30;;
57746;SDS011;43580;44.014;20.466;2023-02-28T15:58:31;111.72;;;53.30;;
57746;SDS011;43580;44.014;20.466;2023-02-28T16:01:04;118.95;;;58.55;;
57746;SDS011;43580;44.014;20.466;2023-02-28T16:03:50;98.20;;;47.72;;
57746;SDS011;43580;44.014;20.466;2023-02-28T16:08:42;87.50;;;42.95;;
57746;SDS011;43580;44.014;20.466;2023-02-28T16:11:14;100.43;;;52.78;;
57746;SDS011;43580;44.014;20.466;2023-02-28T16:13:40;116.60;;;58.92;;
57746;SDS011;43580;44.014;20.466;2023-02-28T16:16:06;116.65;;;58.95;;
57746;SDS011;43580;44.014;20.466;2023-02-28T16:18:33;92.18;;;45.33;;
57746;SDS011;43580;44.014;20.466;2023-02-28T16:20:59;84.13;;;47.75;;
57746;SDS011;43580;44.014;20.466;2023-02-28T16:23:25;84.97;;;43.33;;
57746;SDS011;43580;44.014;20.466;2023-02-28T16:25:51;99.10;;;47.00;;
57746;SDS011;43580;44.014;20.466;2023-02-28T16:28:30;139.88;;;71.25;;
57746;SDS011;43580;44.014;20.466;2023-02-28T16:30:57;90.63;;;44.95;;
57746;SDS011;43580;44.014;20.466;2023-02-28T16:33:25;259.38;;;163.07;;
57746;SDS011;43580;44.014;20.466;2023-02-28T16:35:51;173.68;;;98.13;;
57746;SDS011;43580;44.014;20.466;2023-02-28T16:38:17;98.93;;;44.53;;
57746;SDS011;43580;44.014;20.466;2023-02-28T16:40:44;118.95;;;50.13;;
57746;SDS011;43580;44.014;20.466;2023-02-28T16:43:16;116.65;;;53.65;;
57746;SDS011;43580;44.014;20.466;2023-02-28T16:45:44;92.90;;;45.60;;